Annemanie, Alabama
Current Conditions -  °F | °C
As of 10:55 AM on Friday 31 Oct 2014 (Local Time) from KDYA Reporting Station
Clear Clear  
Wind Chill: 64°   Ceiling: Unl
Heat Index: 64°   Visibility: 10mi
Dew Point: 43°   Wind: 6mph
Humidity: 47%   Direction: 260°W
Pressure: 29.99"   Gusts: NA
Location:  32.05°N, 87.57°W
Report Text: KDYA 311555Z AUTO 26005KT 10SM CLR 18/06 A2999 RMK AO2 T01780062
Loading
Personal Weather Stations






























Interactive Weather Map
Tropical Storm Tracking
New forecast layout! Learn more

10-Day Weather Forecast

Advertisements
Track Severe Weather on mobile